Portada
METAR-TAF:

METAR-TAF

Aeropuertos :

Aeropuerto Internacional de Maiquetía Simón Bolívar

Caracas, Venezuela

latitud: 10-36N, longitud: 066-59W, altitud: 43 m

Observación

El informe se hizo hace 22 minutos, a las 12:00 UTC
Viento calma
Temperatura 27°C
Humedad 74%
Presión 1013 hPa
Visibilidad 10 km o más
Escasas nubes a una altura de 1600 ft

METAR: SVMI 211200Z 00000KT 9999 FEW016 27/22 Q1013

Hora: 08:22 (12:22 UTC)

Pronóstico

El informe se hizo hace 2 horas y 22 minutos, a las 10:00 UTC
Pronóstico válido del 21 a las 12 UTC al 22 a las 12 UTC
Viento kt del norte
Visibilidad 10 km o más
Escasas nubes a una altura de 1600 ft
Temporalmente
del 21 a las 14 UTC al 21 a las 18 UTC
Viento 8 kt del noreste
Nubes dispersas a una altura de 1600 ft

TAF: SVMI 211000Z 2112/2212 00000KT 9999 FEW016 TX33/18Z TN24/08Z TEMPO 2114/2118 05008KT SCT016

Observaciones y pronósticos meteorológicos de más de 4000 aeropuertos (mensajes METAR y TAF).

Los puntos amarillos y rojos representan las estaciones disponibles.

Ponga el ratón en el punto deseado para ver el nombre de la estación.

Haga clic para ver las observaciones y los pronósticos meteorológicos.

Para cambiar el mapa : haga clic en los botones verdes con una cruz de color negro para hacer un zoom, en el botón verde con un guión para alejar o en las flechas verdes para mapas adyacentes.


METAR-TAF: